Time;durP1;ratioP1;P1;durP2;ratioP2;P2;SDS_P1;SDS_P2;PMS_P1;PMS_P2;Temp;Humidity;BMP_temperature;BMP_pressure;BME280_temperature;BME280_humidity;BME280_pressure;Samples;Min_cycle;Max_cycle;Signal;HPM_P1;HPM_P2
2022/03/04 00:01:07;;;;;;;;;;;;;;;;;;;;;
2022/03/04 00:03:48;;;;;;;78.33;72.90;;;3.00;99.10;;;;;;4388545;32;20155;-58
2022/03/04 00:06:26;;;;;;;74.20;69.40;;;3.00;99.20;;;;;;4388409;32;20190;-58
2022/03/04 00:09:04;;;;;;;73.77;68.80;;;3.00;99.20;;;;;;4381295;32;20157;-60
2022/03/04 00:11:45;;;;;;;74.80;69.83;;;2.90;99.40;;;;;;4384622;32;20233;-60
2022/03/04 00:14:17;;;;;;;78.63;73.33;;;2.90;99.60;;;;;;4386944;32;20460;-58
2022/03/04 00:16:49;;;;;;;74.93;70.03;;;2.80;99.50;;;;;;4379456;32;20170;-59
2022/03/04 00:19:26;;;;;;;77.33;72.30;;;2.80;99.60;;;;;;4374605;32;20162;-60
2022/03/04 00:22:03;;;;;;;74.77;69.97;;;2.80;99.70;;;;;;4376703;32;20243;-59
2022/03/04 00:24:36;;;;;;;75.50;70.33;;;2.70;99.90;;;;;;4387494;32;20182;-60
2022/03/04 00:30:01;;;;;;;78.93;73.47;;;2.70;99.90;;;;;;4382538;32;20155;-59
2022/03/04 00:32:28;;;;;;;76.73;71.73;;;2.60;99.90;;;;;;4382285;32;20463;-60
2022/03/04 00:35:15;;;;;;;78.80;73.60;;;2.60;99.90;;;;;;4382841;32;20203;-58
2022/03/04 00:37:55;;;;;;;80.80;75.33;;;2.60;99.90;;;;;;4380364;32;20205;-60
2022/03/04 00:40:25;;;;;;;85.07;79.50;;;2.60;99.90;;;;;;4406155;32;20570;-60
2022/03/04 00:43:05;;;;;;;83.83;78.23;;;2.50;99.90;;;;;;4409258;32;20178;-60
2022/03/04 00:45:43;;;;;;;77.97;73.03;;;2.50;99.90;;;;;;4408627;32;20175;-60
2022/03/04 00:48:16;;;;;;;90.03;84.47;;;2.50;99.90;;;;;;4419584;32;20205;-59
2022/03/04 00:50:50;;;;;;;86.63;81.00;;;2.50;99.90;;;;;;4411767;32;20416;-59
2022/03/04 00:53:24;;;;;;;83.57;77.43;;;2.50;99.90;;;;;;4410023;32;20163;-59
2022/03/04 00:56:04;;;;;;;85.67;79.90;;;2.50;99.90;;;;;;4414337;32;20198;-59
2022/03/04 00:58:37;;;;;;;81.17;75.87;;;2.40;99.90;;;;;;4419392;32;20220;-60
2022/03/04 01:01:09;;;;;;;78.60;73.20;;;2.50;99.90;;;;;;4444986;32;20201;-60
2022/03/04 01:03:52;;;;;;;87.90;82.17;;;2.40;99.90;;;;;;4438296;32;20502;-59
2022/03/04 01:06:32;;;;;;;82.67;77.00;;;2.40;99.90;;;;;;4441270;32;20155;-60
2022/03/04 01:09:18;;;;;;;82.63;77.27;;;2.40;99.90;;;;;;4451361;32;20558;-59
2022/03/04 01:11:52;;;;;;;82.90;77.37;;;2.20;99.90;;;;;;4443483;32;20194;-59
2022/03/04 01:14:25;;;;;;;90.10;83.90;;;2.20;99.90;;;;;;4436613;32;20141;-59
2022/03/04 01:16:58;;;;;;;90.70;84.83;;;2.20;99.90;;;;;;4439375;32;20474;-58
2022/03/04 01:19:29;;;;;;;88.20;82.67;;;2.10;99.90;;;;;;4438766;32;20218;-59
2022/03/04 01:21:56;;;;;;;86.40;80.83;;;2.10;99.90;;;;;;4442596;32;20181;-59
2022/03/04 01:24:38;;;;;;;88.50;82.80;;;2.10;99.90;;;;;;4452619;32;20150;-59
2022/03/04 01:27:05;;;;;;;86.87;81.50;;;2.10;99.90;;;;;;4447388;32;20151;-59
2022/03/04 01:29:39;;;;;;;89.23;83.37;;;2.00;99.90;;;;;;4451756;32;20156;-60
2022/03/04 01:32:10;;;;;;;91.40;85.60;;;2.00;99.90;;;;;;4440454;32;20210;-60
2022/03/04 01:34:42;;;;;;;92.30;86.50;;;1.90;99.90;;;;;;4454268;32;20167;-59
2022/03/04 01:37:19;;;;;;;99.13;93.30;;;1.90;99.90;;;;;;4442152;32;20610;-59
2022/03/04 01:42:42;;;;;;;93.17;87.13;;;1.90;99.90;;;;;;4403205;32;20164;-59
2022/03/04 01:45:17;;;;;;;100.33;94.17;;;1.80;99.90;;;;;;4403316;32;20168;-59
2022/03/04 01:50:40;;;;;;;93.17;87.00;;;1.70;99.90;;;;;;4395055;32;20268;-59
2022/03/04 01:53:18;;;;;;;98.03;91.93;;;1.70;99.90;;;;;;4395872;32;20155;-59
2022/03/04 01:55:53;;;;;;;98.50;92.07;;;1.80;99.90;;;;;;4396029;32;20152;-59
2022/03/04 01:58:29;;;;;;;95.57;89.67;;;1.80;99.90;;;;;;4399172;32;20172;-58
2022/03/04 02:01:20;;;;;;;95.53;89.63;;;1.70;99.90;;;;;;4401770;32;20237;-59
2022/03/04 02:03:52;;;;;;;92.03;85.97;;;1.70;99.90;;;;;;4395445;32;20209;-60
2022/03/04 02:06:29;;;;;;;99.63;93.07;;;1.70;99.90;;;;;;4403019;32;20470;-59
2022/03/04 02:09:01;;;;;;;97.63;91.43;;;1.70;99.90;;;;;;4449181;32;20238;-59
2022/03/04 02:11:38;;;;;;;97.43;91.20;;;1.60;99.90;;;;;;4448952;32;20177;-59
2022/03/04 02:14:12;;;;;;;94.93;89.20;;;1.60;99.90;;;;;;4441091;32;20148;-59
2022/03/04 02:16:45;;;;;;;96.37;90.00;;;1.60;99.90;;;;;;4442345;32;20154;-58
2022/03/04 02:19:13;;;;;;;99.33;93.03;;;1.60;99.90;;;;;;4442886;32;20493;-57
2022/03/04 02:21:49;;;;;;;102.77;96.07;;;1.50;99.90;;;;;;4447079;32;20166;-59
2022/03/04 02:24:17;;;;;;;98.10;91.70;;;1.50;99.90;;;;;;4439808;32;20146;-58
2022/03/04 02:26:54;;;;;;;100.83;94.53;;;1.50;99.90;;;;;;4443961;32;20182;-60
2022/03/04 02:29:30;;;;;;;99.47;93.23;;;1.50;99.90;;;;;;4443382;32;20150;-59
2022/03/04 02:35:03;;;;;;;99.97;93.37;;;1.40;99.90;;;;;;4404139;32;20164;-59
2022/03/04 02:37:43;;;;;;;104.30;97.83;;;1.40;99.90;;;;;;4401653;32;20168;-59
2022/03/04 02:40:31;;;;;;;102.20;95.57;;;1.30;99.90;;;;;;4402369;32;20205;-59
2022/03/04 02:42:58;;;;;;;102.77;95.70;;;1.30;99.90;;;;;;4406361;32;20635;-60
2022/03/04 02:45:32;;;;;;;107.13;100.50;;;1.20;99.90;;;;;;4404028;32;20275;-59
2022/03/04 02:48:12;;;;;;;100.53;94.10;;;1.20;99.90;;;;;;4402268;32;20553;-59
2022/03/04 02:50:47;;;;;;;102.10;95.70;;;1.20;99.90;;;;;;4403289;32;20232;-59
2022/03/04 02:53:20;;;;;;;106.40;99.33;;;1.10;99.90;;;;;;4404357;32;20164;-58
2022/03/04 02:55:58;;;;;;;100.87;94.30;;;1.00;99.90;;;;;;4404468;32;20226;-58
2022/03/04 02:58:31;;;;;;;102.70;96.03;;;1.00;99.90;;;;;;4408895;32;20159;-57
2022/03/04 03:01:02;;;;;;;94.87;88.10;;;0.90;99.90;;;;;;4437913;32;20571;-59
2022/03/04 03:03:36;;;;;;;97.77;91.80;;;1.00;99.90;;;;;;4443572;32;20214;-58
2022/03/04 03:06:15;;;;;;;99.07;92.73;;;0.90;99.90;;;;;;4438307;32;20217;-59
2022/03/04 03:08:51;;;;;;;95.93;89.17;;;0.90;99.90;;;;;;4439684;32;20146;-60
2022/03/04 03:11:24;;;;;;;99.23;92.77;;;1.00;99.90;;;;;;4450003;32;20227;-59
2022/03/04 03:13:58;;;;;;;103.17;96.53;;;1.00;99.90;;;;;;4440590;32;20693;-58
2022/03/04 03:16:34;;;;;;;96.97;90.13;;;0.90;99.90;;;;;;4448103;32;20480;-59
2022/03/04 03:19:08;;;;;;;94.00;88.03;;;0.90;99.90;;;;;;4437493;32;20153;-57
2022/03/04 03:21:42;;;;;;;94.70;88.23;;;0.80;99.90;;;;;;4437062;32;20511;-58
2022/03/04 03:24:14;;;;;;;102.17;95.67;;;0.90;99.90;;;;;;4448498;32;20151;-59
2022/03/04 03:29:33;;;;;;;94.70;88.27;;;0.90;99.90;;;;;;4445483;32;20241;-59
2022/03/04 03:32:00;;;;;;;95.60;89.30;;;0.80;99.90;;;;;;4446560;32;20175;-58
2022/03/04 03:34:27;;;;;;;98.93;92.07;;;0.80;99.90;;;;;;4441157;32;20650;-57
2022/03/04 03:37:04;;;;;;;98.17;91.67;;;0.80;99.90;;;;;;4440900;32;20563;-57
2022/03/04 03:39:38;;;;;;;97.63;91.40;;;0.70;99.90;;;;;;4450414;32;20155;-59
2022/03/04 03:42:10;;;;;;;96.37;89.87;;;0.70;99.90;;;;;;4447076;32;20147;-59
2022/03/04 03:44:37;;;;;;;100.43;93.73;;;0.70;99.90;;;;;;4436955;32;20198;-57
2022/03/04 03:47:11;;;;;;;95.73;89.40;;;0.60;99.90;;;;;;4438393;32;20516;-58
2022/03/04 03:49:46;;;;;;;95.53;89.50;;;0.60;99.90;;;;;;4436854;32;20139;-58
2022/03/04 03:52:18;;;;;;;97.97;91.70;;;0.60;99.90;;;;;;4438652;32;20210;-59
2022/03/04 03:54:51;;;;;;;97.00;90.43;;;0.60;99.90;;;;;;4437247;32;20207;-58
2022/03/04 03:57:25;;;;;;;95.13;88.77;;;0.70;99.90;;;;;;4450783;32;20146;-57
2022/03/04 03:59:58;;;;;;;96.57;89.90;;;0.50;99.90;;;;;;4452677;32;20166;-58
2022/03/04 04:02:41;;;;;;;96.97;90.67;;;0.60;99.90;;;;;;4451962;32;20481;-57
2022/03/04 04:05:19;;;;;;;93.53;87.30;;;0.60;99.90;;;;;;4453105;32;20172;-57
2022/03/04 04:07:49;;;;;;;96.73;90.27;;;0.60;99.90;;;;;;4452354;32;20238;-58
2022/03/04 04:10:24;;;;;;;97.17;90.60;;;0.60;99.90;;;;;;4452029;32;20205;-58
2022/03/04 04:13:01;;;;;;;100.23;93.37;;;0.60;99.90;;;;;;4445738;32;20150;-58
2022/03/04 04:15:38;;;;;;;89.67;83.60;;;0.60;99.90;;;;;;4436599;32;20157;-58
2022/03/04 04:18:10;;;;;;;95.03;89.00;;;0.60;99.90;;;;;;4435867;32;20146;-57
2022/03/04 04:23:23;;;;;;;101.17;94.60;;;0.60;99.90;;;;;;4435650;32;20183;-58
2022/03/04 04:25:54;;;;;;;95.33;89.13;;;0.50;99.90;;;;;;4436624;32;20643;-56
2022/03/04 04:28:29;;;;;;;101.27;94.97;;;0.70;99.90;;;;;;4437469;32;20188;-57
2022/03/04 04:30:57;;;;;;;97.37;91.07;;;0.60;99.90;;;;;;4445462;32;20154;-56
2022/03/04 04:33:33;;;;;;;98.03;91.43;;;0.60;99.90;;;;;;4451922;32;20191;-55
2022/03/04 04:36:14;;;;;;;101.17;94.13;;;0.60;99.90;;;;;;4451671;32;20182;-59
2022/03/04 04:38:52;;;;;;;99.97;93.20;;;0.60;99.90;;;;;;4451709;32;20604;-59
2022/03/04 04:41:27;;;;;;;102.07;95.63;;;0.60;99.90;;;;;;4453391;32;20177;-59
2022/03/04 04:44:02;;;;;;;107.90;101.30;;;0.60;99.90;;;;;;4453391;32;20477;-58
2022/03/04 04:46:38;;;;;;;107.30;100.50;;;0.60;99.90;;;;;;4441427;32;20472;-57
2022/03/04 04:49:25;;;;;;;104.93;98.30;;;0.50;99.90;;;;;;4436685;32;20138;-59
2022/03/04 04:51:52;;;;;;;107.47;100.50;;;0.50;99.90;;;;;;4448094;32;20550;-60
2022/03/04 04:54:22;;;;;;;106.23;99.53;;;0.50;99.90;;;;;;4452499;32;20577;-59
2022/03/04 04:56:59;;;;;;;112.40;105.43;;;0.50;99.90;;;;;;4453216;32;20169;-59
2022/03/04 04:59:40;;;;;;;107.93;101.03;;;0.40;99.90;;;;;;4448955;32;20182;-59
2022/03/04 05:02:18;;;;;;;108.50;101.37;;;0.40;99.90;;;;;;4453208;32;20243;-59
2022/03/04 05:04:56;;;;;;;111.83;104.97;;;0.40;99.90;;;;;;4451386;32;20142;-59
2022/03/04 05:07:30;;;;;;;110.70;103.67;;;0.30;99.90;;;;;;4452307;32;20150;-65
2022/03/04 05:10:06;;;;;;;116.00;108.63;;;0.30;99.90;;;;;;4450994;32;20178;-56
2022/03/04 05:12:58;;;;;;;114.00;106.67;;;0.30;99.90;;;;;;4446651;32;20143;-59
2022/03/04 05:15:41;;;;;;;112.33;104.97;;;0.30;99.90;;;;;;4438660;32;20208;-58
2022/03/04 05:18:28;;;;;;;111.47;104.40;;;0.30;99.90;;;;;;4442818;32;20143;-59
2022/03/04 05:20:56;;;;;;;113.37;105.93;;;0.30;99.90;;;;;;4403377;32;20159;-59
2022/03/04 05:26:28;;;;;;;115.93;108.83;;;0.20;99.90;;;;;;4403590;32;20207;-58
2022/03/04 05:29:05;;;;;;;123.53;115.77;;;0.20;99.90;;;;;;4401649;32;20160;-58
2022/03/04 05:31:34;;;;;;;120.00;112.70;;;0.20;99.90;;;;;;4404828;32;20195;-59
2022/03/04 05:34:19;;;;;;;125.73;117.63;;;0.20;99.90;;;;;;4403369;32;20253;-57
2022/03/04 05:36:56;;;;;;;123.17;115.70;;;0.20;99.90;;;;;;4403198;32;20160;-58
2022/03/04 05:42:10;;;;;;;128.43;120.80;;;0.20;99.90;;;;;;4403202;32;20288;-56
2022/03/04 05:44:46;;;;;;;129.33;121.57;;;0.10;99.90;;;;;;4402968;32;20218;-60
2022/03/04 05:47:16;;;;;;;123.60;116.03;;;0.10;99.90;;;;;;4403125;32;20148;-60
2022/03/04 05:50:13;;;;;;;125.57;117.87;;;0.10;99.90;;;;;;4402853;32;20321;-59
2022/03/04 05:52:50;;;;;;;126.60;118.87;;;0.10;99.90;;;;;;4402269;32;20143;-60
2022/03/04 05:55:31;;;;;;;122.27;114.37;;;0.10;99.90;;;;;;4403067;32;20209;-58
2022/03/04 05:58:04;;;;;;;121.40;113.63;;;0.10;99.90;;;;;;4416316;32;20166;-57
2022/03/04 06:00:57;;;;;;;119.97;112.60;;;0.10;99.90;;;;;;4434852;32;20452;-58
2022/03/04 06:03:32;;;;;;;125.60;118.00;;;0.10;99.90;;;;;;4437354;32;20179;-60
2022/03/04 06:06:11;;;;;;;124.73;116.73;;;0.10;99.90;;;;;;4449799;32;20154;-60
2022/03/04 06:08:57;;;;;;;124.57;117.03;;;0.10;99.90;;;;;;4447835;32;20173;-60
2022/03/04 06:11:25;;;;;;;123.33;115.83;;;0.10;99.90;;;;;;4438413;32;20147;-61
2022/03/04 06:14:00;;;;;;;130.53;122.67;;;0.10;99.90;;;;;;4437904;32;20163;-60
2022/03/04 06:16:35;;;;;;;134.43;125.53;;;0.10;99.90;;;;;;4440267;32;20229;-60
2022/03/04 06:19:28;;;;;;;123.17;115.77;;;0.10;99.90;;;;;;4447800;32;20199;-60
2022/03/04 06:22:07;;;;;;;121.07;114.00;;;0.10;99.90;;;;;;4438066;32;20155;-60
2022/03/04 06:24:35;;;;;;;131.13;123.53;;;0.10;99.90;;;;;;4438250;32;20168;-58
2022/03/04 06:27:07;;;;;;;124.47;116.90;;;0.10;99.90;;;;;;4438226;32;20181;-60
2022/03/04 06:29:41;;;;;;;129.53;121.50;;;0.10;99.90;;;;;;4439768;32;20163;-59
2022/03/04 06:32:21;;;;;;;137.20;129.17;;;0.10;99.90;;;;;;4437713;32;20205;-57
2022/03/04 06:35:00;;;;;;;128.33;120.83;;;0.10;99.90;;;;;;4438787;32;20598;-59
2022/03/04 06:37:37;;;;;;;128.73;121.07;;;0.10;99.90;;;;;;4439124;32;20197;-60
2022/03/04 06:40:09;;;;;;;123.73;116.23;;;0.10;99.90;;;;;;4439105;32;20181;-60
2022/03/04 06:42:47;;;;;;;129.13;121.00;;;0.20;99.90;;;;;;4438057;32;20192;-60
2022/03/04 06:45:19;;;;;;;135.70;127.57;;;0.10;99.90;;;;;;4437957;32;20465;-59
2022/03/04 06:48:00;;;;;;;137.27;128.63;;;0.20;99.90;;;;;;4437790;32;20502;-60
2022/03/04 06:50:50;;;;;;;132.13;124.43;;;0.20;99.90;;;;;;4441735;32;20201;-59
2022/03/04 06:53:33;;;;;;;133.10;124.47;;;0.20;99.90;;;;;;4452509;32;20143;-60
2022/03/04 06:56:18;;;;;;;131.93;123.73;;;0.20;99.90;;;;;;4452007;32;20154;-61
2022/03/04 06:59:05;;;;;;;138.67;130.50;;;0.30;99.90;;;;;;4454666;32;20209;-60
2022/03/04 07:01:51;;;;;;;138.97;130.70;;;0.30;99.90;;;;;;4439638;32;20171;-58
2022/03/04 07:04:28;;;;;;;132.10;124.30;;;0.30;99.90;;;;;;4453111;32;20160;-60
2022/03/04 07:07:08;;;;;;;134.90;127.13;;;0.40;99.90;;;;;;4452969;32;20201;-59
2022/03/04 07:09:49;;;;;;;134.97;126.87;;;0.40;99.90;;;;;;4453449;32;20147;-60
2022/03/04 07:12:24;;;;;;;142.07;133.67;;;0.50;99.90;;;;;;4452504;32;20245;-60
2022/03/04 07:14:58;;;;;;;131.67;123.93;;;0.50;99.90;;;;;;4452844;32;20444;-59
2022/03/04 07:20:13;;;;;;;139.37;131.00;;;0.70;99.90;;;;;;4441526;32;20206;-59
2022/03/04 07:22:44;;;;;;;131.97;124.17;;;0.80;99.90;;;;;;4441659;32;20170;-61
2022/03/04 07:25:19;;;;;;;139.70;130.60;;;0.80;99.90;;;;;;4444230;32;20156;-61
2022/03/04 07:27:50;;;;;;;135.07;126.73;;;0.90;99.90;;;;;;4439927;32;20150;-57
2022/03/04 07:30:20;;;;;;;135.17;127.00;;;1.00;99.90;;;;;;4447188;32;20163;-59
2022/03/04 07:33:09;;;;;;;141.20;132.97;;;1.00;99.90;;;;;;4442354;32;20217;-59
2022/03/04 07:35:48;;;;;;;141.47;132.87;;;1.10;99.90;;;;;;4440721;32;20158;-59
2022/03/04 07:38:24;;;;;;;139.97;131.70;;;1.20;99.90;;;;;;4442112;32;20162;-60
2022/03/04 07:40:58;;;;;;;140.47;132.53;;;1.30;99.90;;;;;;4442677;32;20232;-60
2022/03/04 07:43:25;;;;;;;140.97;132.17;;;1.40;99.90;;;;;;4445308;32;20203;-60
2022/03/04 07:45:58;;;;;;;139.10;130.67;;;1.50;99.90;;;;;;4442146;32;20583;-59
2022/03/04 07:48:31;;;;;;;141.53;133.27;;;1.60;99.90;;;;;;4443659;32;20501;-61
2022/03/04 07:51:09;;;;;;;135.10;127.33;;;1.70;99.90;;;;;;4444550;32;20176;-59
2022/03/04 07:53:42;;;;;;;134.27;126.17;;;1.80;99.90;;;;;;4441998;32;20178;-57
2022/03/04 07:56:18;;;;;;;133.23;125.40;;;1.80;99.90;;;;;;4443394;32;20171;-58
2022/03/04 07:58:48;;;;;;;136.03;127.77;;;1.90;99.90;;;;;;4440705;32;20562;-59
2022/03/04 08:01:16;;;;;;;135.73;127.67;;;2.00;99.90;;;;;;4441432;32;20210;-58
2022/03/04 08:03:43;;;;;;;145.50;136.97;;;2.10;99.90;;;;;;4440687;32;20159;-59
2022/03/04 08:06:16;;;;;;;135.23;127.23;;;2.20;99.90;;;;;;4444588;32;20170;-58
2022/03/04 08:09:00;;;;;;;134.73;126.43;;;2.30;99.90;;;;;;4442731;32;20151;-58
2022/03/04 08:11:33;;;;;;;129.10;121.43;;;2.40;99.90;;;;;;4442167;32;20583;-60
2022/03/04 08:14:03;;;;;;;130.03;122.57;;;2.50;99.90;;;;;;4443199;32;20151;-60
2022/03/04 08:16:43;;;;;;;143.00;134.73;;;2.60;99.90;;;;;;4442418;32;20484;-60
2022/03/04 08:19:26;;;;;;;131.63;124.07;;;2.70;99.90;;;;;;4442235;32;20193;-60
2022/03/04 08:21:59;;;;;;;125.00;117.83;;;2.80;99.90;;;;;;4440348;32;20174;-58
2022/03/04 08:24:35;;;;;;;120.00;112.87;;;2.90;99.90;;;;;;4442707;32;20195;-59
2022/03/04 08:30:05;;;;;;;112.20;105.40;;;3.20;99.90;;;;;;4436363;32;20182;-60
2022/03/04 08:32:59;;;;;;;116.40;109.13;;;3.30;99.90;;;;;;4442095;32;20210;-60
2022/03/04 08:35:26;;;;;;;116.70;109.97;;;3.40;99.90;;;;;;4381690;32;20162;-59
2022/03/04 08:38:15;;;;;;;118.50;111.73;;;3.60;99.90;;;;;;4383768;32;20164;-60
2022/03/04 08:40:53;;;;;;;111.87;105.17;;;3.70;99.90;;;;;;4380057;32;20596;-59
2022/03/04 08:43:25;;;;;;;107.43;100.87;;;3.80;99.90;;;;;;4378384;32;20173;-60
2022/03/04 08:46:14;;;;;;;118.33;111.43;;;3.90;99.90;;;;;;4380532;32;20157;-61
2022/03/04 08:49:05;;;;;;;116.40;109.67;;;4.00;99.90;;;;;;4380941;32;20172;-61
2022/03/04 08:51:39;;;;;;;122.40;115.33;;;4.10;99.90;;;;;;4337280;33;20197;-60
2022/03/04 08:54:20;;;;;;;127.73;120.17;;;4.20;99.90;;;;;;4335536;33;20170;-61
2022/03/04 08:57:12;;;;;;;122.27;114.97;;;4.30;99.90;;;;;;4339738;33;20173;-61
2022/03/04 08:59:57;;;;;;;128.47;121.13;;;4.50;99.90;;;;;;4338589;33;20183;-59
2022/03/04 09:02:35;;;;;;;125.43;118.20;;;4.50;99.90;;;;;;4341126;33;20175;-58
2022/03/04 09:08:19;;;;;;;123.10;115.93;;;4.70;99.90;;;;;;4331893;33;20248;-58
2022/03/04 09:10:52;;;;;;;128.30;120.60;;;4.80;99.90;;;;;;4337896;33;20181;-60
2022/03/04 09:13:33;;;;;;;129.80;121.77;;;4.80;99.90;;;;;;4376850;32;20165;-60
2022/03/04 09:16:04;;;;;;;119.50;112.63;;;4.90;99.90;;;;;;4381222;32;20191;-60
2022/03/04 09:18:34;;;;;;;115.63;109.17;;;5.00;99.90;;;;;;4383902;32;20156;-59
2022/03/04 09:21:08;;;;;;;120.37;113.43;;;5.00;99.90;;;;;;4380372;32;20248;-60
2022/03/04 09:23:39;;;;;;;119.20;112.03;;;5.10;99.90;;;;;;4379846;32;20163;-59
2022/03/04 09:26:19;;;;;;;115.70;109.17;;;5.20;99.90;;;;;;4379325;32;20156;-62
2022/03/04 09:28:50;;;;;;;114.73;108.13;;;5.30;99.90;;;;;;4411540;32;20204;-60
2022/03/04 09:31:35;;;;;;;124.57;117.43;;;5.40;99.90;;;;;;4435382;32;20177;-61
2022/03/04 09:34:07;;;;;;;114.30;107.90;;;5.50;99.90;;;;;;4437203;32;20616;-59
2022/03/04 09:36:44;;;;;;;107.10;101.07;;;5.60;99.90;;;;;;4438804;32;20174;-60
2022/03/04 09:39:20;;;;;;;108.40;102.27;;;5.60;99.90;;;;;;4440752;32;20189;-60
2022/03/04 09:42:09;;;;;;;106.70;100.23;;;5.70;99.90;;;;;;4441582;32;20158;-60
2022/03/04 09:44:40;;;;;;;110.67;104.33;;;5.80;99.90;;;;;;4438216;32;20516;-57
2022/03/04 09:47:13;;;;;;;112.17;105.77;;;5.90;99.90;;;;;;4446498;32;20489;-60
2022/03/04 09:49:50;;;;;;;111.00;104.63;;;5.90;99.90;;;;;;4440812;32;20192;-60
2022/03/04 09:52:20;;;;;;;107.50;101.40;;;6.00;99.90;;;;;;4441971;32;20166;-60
2022/03/04 09:54:54;;;;;;;107.13;101.00;;;6.10;99.90;;;;;;4443156;32;20202;-58
2022/03/04 09:57:29;;;;;;;112.73;106.23;;;6.30;99.90;;;;;;4445860;32;20627;-59
2022/03/04 10:00:14;;;;;;;101.97;95.97;;;6.40;99.90;;;;;;4447636;32;20586;-60
2022/03/04 10:02:41;;;;;;;109.30;103.07;;;6.50;99.90;;;;;;4445062;32;20221;-58
2022/03/04 10:05:14;;;;;;;103.23;97.23;;;6.60;99.90;;;;;;4442918;32;20142;-59
2022/03/04 10:07:50;;;;;;;105.80;99.63;;;6.80;99.70;;;;;;4444028;32;20147;-59
2022/03/04 10:10:22;;;;;;;98.80;93.03;;;6.90;99.30;;;;;;4438821;32;20163;-59
2022/03/04 10:13:01;;;;;;;97.57;91.77;;;7.00;99.10;;;;;;4443375;32;20162;-60
2022/03/04 10:15:31;;;;;;;95.10;89.57;;;7.10;99.00;;;;;;4443071;32;20174;-58
2022/03/04 10:18:10;;;;;;;90.63;85.23;;;7.20;98.10;;;;;;4439975;32;20171;-59
2022/03/04 10:20:45;;;;;;;93.03;87.53;;;7.30;98.00;;;;;;4447012;32;20143;-59
2022/03/04 10:23:30;;;;;;;98.50;92.83;;;7.40;97.30;;;;;;4444266;32;20227;-59
2022/03/04 10:26:05;;;;;;;95.90;89.70;;;7.40;97.60;;;;;;4445001;32;20170;-59
2022/03/04 10:28:37;;;;;;;95.53;89.83;;;7.50;97.20;;;;;;4443508;32;20273;-60
2022/03/04 10:31:09;;;;;;;101.03;95.30;;;7.60;97.30;;;;;;4441413;32;20147;-59
2022/03/04 10:33:36;;;;;;;97.47;91.87;;;7.70;96.80;;;;;;4442429;32;20163;-59
2022/03/04 10:36:18;;;;;;;101.20;95.27;;;7.60;96.70;;;;;;4442348;32;20163;-59
2022/03/04 10:39:13;;;;;;;94.53;88.87;;;7.70;96.80;;;;;;4439481;32;20236;-59
2022/03/04 10:44:44;;;;;;;90.60;85.30;;;7.90;96.50;;;;;;4442035;32;20179;-59
2022/03/04 10:47:17;;;;;;;92.27;86.57;;;8.00;95.70;;;;;;4442214;32;20617;-60
2022/03/04 10:49:54;;;;;;;97.93;92.27;;;8.10;95.30;;;;;;4441992;32;20147;-60
2022/03/04 10:52:23;;;;;;;85.80;80.83;;;8.20;95.20;;;;;;4444429;32;20239;-60
2022/03/04 10:55:07;;;;;;;85.33;79.90;;;8.20;94.50;;;;;;4443161;32;20151;-60
2022/03/04 10:57:42;;;;;;;94.07;88.60;;;8.20;93.80;;;;;;4441510;32;20163;-61
2022/03/04 11:00:26;;;;;;;83.30;78.23;;;8.30;94.60;;;;;;4440411;32;20170;-62
2022/03/04 11:02:55;;;;;;;89.95;85.00;;;8.30;94.10;;;;;;4437150;32;20139;-60
2022/03/04 11:05:25;;;;;;;80.03;74.97;;;8.40;94.00;;;;;;4443469;32;20160;-60
2022/03/04 11:08:01;;;;;;;80.27;75.10;;;8.50;93.30;;;;;;4439731;32;20645;-61
2022/03/04 11:10:36;;;;;;;71.23;66.57;;;8.60;93.00;;;;;;4449095;32;20640;-60
2022/03/04 11:13:05;;;;;;;69.53;65.20;;;8.60;92.70;;;;;;4440518;32;20155;-60
2022/03/04 11:15:37;;;;;;;73.17;68.77;;;8.70;92.50;;;;;;4443915;32;20224;-59
2022/03/04 11:18:06;;;;;;;75.07;70.43;;;8.70;92.30;;;;;;4440766;32;20155;-59
2022/03/04 11:20:53;;;;;;;74.70;69.90;;;8.80;92.00;;;;;;4444067;32;20149;-59
2022/03/04 11:23:26;;;;;;;65.67;61.77;;;8.90;91.90;;;;;;4442047;32;20183;-60
2022/03/04 11:26:10;;;;;;;63.30;59.33;;;9.00;90.40;;;;;;4443092;32;20181;-59
2022/03/04 11:28:49;;;;;;;65.10;60.93;;;9.00;90.40;;;;;;4441945;32;20201;-64
2022/03/04 11:31:25;;;;;;;62.37;58.07;;;9.00;90.00;;;;;;4441096;32;20206;-61
2022/03/04 11:34:03;;;;;;;70.87;66.67;;;9.00;89.90;;;;;;4442444;32;20253;-59
2022/03/04 11:36:39;;;;;;;57.93;54.17;;;9.10;90.40;;;;;;4440491;32;20151;-59
2022/03/04 11:39:12;;;;;;;68.30;63.67;;;9.10;88.50;;;;;;4447580;32;20158;-61
2022/03/04 11:42:24;;;;;;;61.43;57.33;;;9.20;89.60;;;;;;4452148;32;20550;-60
2022/03/04 11:45:02;;;;;;;67.00;62.30;;;9.20;88.70;;;;;;4444783;32;20234;-60
2022/03/04 11:47:47;;;;;;;77.17;72.40;;;9.30;89.70;;;;;;4440775;32;20515;-60
2022/03/04 11:50:31;;;;;;;96.27;90.57;;;9.30;90.30;;;;;;4442028;32;20221;-60
2022/03/04 11:53:29;;;;;;;69.37;64.90;;;9.40;91.50;;;;;;4439748;32;20593;-61
2022/03/04 11:56:19;;;;;;;73.03;68.53;;;9.40;90.30;;;;;;4439265;32;20228;-60
2022/03/04 11:59:22;;;;;;;73.67;69.17;;;9.40;88.40;;;;;;4439163;32;20178;-61
2022/03/04 12:02:02;;;;;;;65.47;61.13;;;9.50;88.10;;;;;;4444156;32;20500;-60
2022/03/04 12:04:38;;;;;;;76.17;71.27;;;9.60;86.70;;;;;;4440854;32;20155;-61
2022/03/04 12:07:11;;;;;;;67.70;63.50;;;9.70;88.40;;;;;;4444867;32;20176;-60
2022/03/04 12:09:58;;;;;;;66.67;62.30;;;9.80;87.50;;;;;;4441388;32;20623;-60
2022/03/04 12:12:30;;;;;;;64.20;59.80;;;9.70;86.50;;;;;;4440504;32;20174;-60
2022/03/04 12:15:36;;;;;;;77.83;72.90;;;9.70;85.10;;;;;;4445636;32;20162;-60
2022/03/04 12:18:18;;;;;;;79.50;74.67;;;9.70;87.20;;;;;;4439349;32;20140;-60
2022/03/04 12:21:10;;;;;;;98.17;92.37;;;9.70;88.30;;;;;;4443013;32;20453;-61
2022/03/04 12:23:49;;;;;;;81.43;76.57;;;9.80;90.50;;;;;;4436186;32;20185;-61
2022/03/04 12:26:27;;;;;;;67.30;62.80;;;9.80;90.00;;;;;;4437376;32;20146;-60
2022/03/04 12:29:05;;;;;;;72.93;68.47;;;9.90;87.00;;;;;;4451476;32;20195;-61
2022/03/04 12:31:39;;;;;;;70.17;65.97;;;9.80;86.90;;;;;;4452030;32;20527;-60
2022/03/04 12:34:31;;;;;;;;;;;;;;;;;;;;;
2022/03/04 12:37:21;;;;;;;54.77;51.37;;;9.90;84.90;;;;;;4434641;32;20139;-60
2022/03/04 12:40:02;;;;;;;60.70;56.93;;;9.90;83.20;;;;;;4436035;32;20151;-61
2022/03/04 12:42:36;;;;;;;45.47;42.43;;;10.00;84.10;;;;;;4436468;32;20188;-60
2022/03/04 12:45:19;;;;;;;56.70;53.10;;;10.10;79.30;;;;;;4435780;32;20169;-60
2022/03/04 12:47:49;;;;;;;59.10;55.07;;;10.10;81.90;;;;;;4436183;32;20143;-61
2022/03/04 12:50:30;;;;;;;52.90;49.07;;;10.10;82.70;;;;;;4435811;32;20155;-60
2022/03/04 12:53:18;;;;;;;47.03;43.93;;;10.30;82.40;;;;;;4436429;32;20150;-61
2022/03/04 12:55:52;;;;;;;34.53;32.47;;;10.10;81.10;;;;;;4436054;32;20137;-61
2022/03/04 12:58:40;;;;;;;47.47;44.03;;;10.10;75.30;;;;;;4435962;32;20138;-61
2022/03/04 13:01:14;;;;;;;47.77;44.53;;;10.10;79.60;;;;;;4436332;32;20467;-61
2022/03/04 13:03:49;;;;;;;51.23;47.73;;;10.10;79.90;;;;;;4435860;32;20146;-62
2022/03/04 13:06:31;;;;;;;49.60;46.10;;;10.10;80.00;;;;;;4436046;32;20142;-62
2022/03/04 13:09:13;;;;;;;41.73;39.10;;;10.20;80.30;;;;;;4435789;32;20142;-62
2022/03/04 13:11:46;;;;;;;47.13;43.90;;;10.10;77.80;;;;;;4435768;32;20578;-62
2022/03/04 13:14:25;;;;;;;46.60;43.20;;;10.10;78.20;;;;;;4435673;32;20214;-63
2022/03/04 13:17:03;;;;;;;34.73;32.53;;;10.20;78.80;;;;;;4438545;32;20243;-63
2022/03/04 13:19:39;;;;;;;27.67;26.07;;;10.30;73.90;;;;;;4439556;32;20166;-62
2022/03/04 13:22:20;;;;;;;27.07;25.47;;;10.30;68.60;;;;;;4438935;32;20148;-59
2022/03/04 13:24:56;;;;;;;27.33;25.83;;;10.40;67.70;;;;;;4426272;32;20160;-63
2022/03/04 13:27:37;;;;;;;29.47;27.67;;;10.30;65.70;;;;;;4439375;32;20142;-62
2022/03/04 13:30:16;;;;;;;24.23;22.83;;;10.20;66.00;;;;;;4439015;32;20218;-61
2022/03/04 13:32:55;;;;;;;25.23;23.93;;;10.30;65.60;;;;;;4438768;32;20173;-61
2022/03/04 13:38:22;;;;;;;25.80;24.30;;;10.20;61.40;;;;;;4438764;32;20227;-61
2022/03/04 13:40:58;;;;;;;22.83;21.53;;;10.30;63.50;;;;;;4438562;32;20165;-62
2022/03/04 13:43:32;;;;;;;24.90;23.37;;;10.20;60.80;;;;;;4430859;32;20164;-60
2022/03/04 13:46:10;;;;;;;23.97;22.53;;;10.20;60.90;;;;;;4438648;32;20156;-61
2022/03/04 13:48:37;;;;;;;25.13;23.73;;;10.10;61.20;;;;;;4439626;32;20164;-62
2022/03/04 13:51:16;;;;;;;24.77;23.47;;;10.00;60.80;;;;;;4438437;32;20177;-62
2022/03/04 13:54:08;;;;;;;25.03;23.43;;;10.10;61.40;;;;;;4439504;32;20494;-62
2022/03/04 14:00:09;;;;;;;26.27;24.77;;;10.10;59.70;;;;;;4316619;33;20158;-62